Illinois River (Oklahoma), Watts (07195500)

StateOklahomaLatestLow (499 cfs)
RiverIllinois RiverRatingObservedEstimated
Updated2020-07-13 19:30 (1 hour ago)Flood - The river is flooding. Obstacles can be treacherous or deadly. The river should be avoided at this stage for casual trips and definitely for the inexperienced. Trips should be attempted only with protective gear and equipment.Flood(none)2254
Discharge499 cfs (median: 255 cfs)High - The river is high and potentially dangerous, especially for the young and / or inexperienced. Normal stream obstacles are sometimes difficult to navigate. Extended distances can be attempted, but canoe travel may not be advisable.High(none)1122
Height3.22 feetGood - Conditions are ideal for a canoe or kayak. Boats typically will drag on fewer than one-quarter of riffles, if at all, and portages are unnecessary or rare. Normal float lengths can be attempted without a problem.Good(none)574
TrendSteady (falling over 24 hours)Low - River is low but can still be floated. Some riffles are okay but most come with significant dragging and might need a portage. Float lengths should be reduced to accommodate low flow, dragging, and portages.Low(none)371
USGSExternal icon USGS Site (External icon Google Maps)Poor - River is too low to float comfortably. Most or all riffles will drag or must be portaged and some obstacles (such as slick shelf rock) cause undue problems. Avoid the river at this stage for casual paddling trips.Poor(none)178

Trending Data

Plot Image

Trips for Illinois River (Oklahoma), Watts (07195500)

DateStartEndDistanceConditionDischargeHeightFishingDetails

A total of 0 rows are displayed.

Condition Descriptions

Fishing Conditions

Fish Species

Notes

Classic Trip List

The classic River Trips application is still available for use. It is updated with the new system using a data retrofit. It is no longer maintained. The original River Trips application is no longer updated (as of 1 Dec 2016) but can be checked for errors or for the condition of the data before it was converted to the new system.

Gauge Data Table

ObservationHeightDischargeMaximum
Discharge
Minimum
Discharge
Mean
Discharge
P05P10P20P25P50
(Median)
P75P80P90P95
2020-07-13 19:30 3.22 499 10100 (1958) 51 (1964) 679 67 105 129 173 255 353 400 816 5240
2020-07-13 18:30 3.22 499 10100 (1958) 51 (1964) 679 67 105 129 173 255 353 400 816 5240
2020-07-13 17:30 3.22 499 10100 (1958) 51 (1964) 679 67 105 129 173 255 353 400 816 5240
2020-07-13 16:30 3.23 503 10100 (1958) 51 (1964) 679 67 105 129 173 255 353 400 816 5240
2020-07-13 15:30 3.23 503 10100 (1958) 51 (1964) 679 67 105 129 173 255 353 400 816 5240
2020-07-13 14:30 3.23 503 10100 (1958) 51 (1964) 679 67 105 129 173 255 353 400 816 5240
2020-07-13 13:30 3.23 503 10100 (1958) 51 (1964) 679 67 105 129 173 255 353 400 816 5240
2020-07-13 12:30 3.23 503 10100 (1958) 51 (1964) 679 67 105 129 173 255 353 400 816 5240
2020-07-13 11:30 3.24 507 10100 (1958) 51 (1964) 679 67 105 129 173 255 353 400 816 5240
2020-07-13 10:30 3.24 507 10100 (1958) 51 (1964) 679 67 105 129 173 255 353 400 816 5240
2020-07-13 09:30 3.24 507 10100 (1958) 51 (1964) 679 67 105 129 173 255 353 400 816 5240
2020-07-13 08:30 3.24 507 10100 (1958) 51 (1964) 679 67 105 129 173 255 353 400 816 5240
2020-07-13 07:30 3.24 507 10100 (1958) 51 (1964) 679 67 105 129 173 255 353 400 816 5240
2020-07-13 06:30 3.24 507 10100 (1958) 51 (1964) 679 67 105 129 173 255 353 400 816 5240
2020-07-13 05:30 3.25 511 10100 (1958) 51 (1964) 679 67 105 129 173 255 353 400 816 5240
2020-07-13 04:30 3.25 511 10100 (1958) 51 (1964) 679 67 105 129 173 255 353 400 816 5240
2020-07-13 03:30 3.26 516 10100 (1958) 51 (1964) 679 67 105 129 173 255 353 400 816 5240
2020-07-13 02:30 3.26 516 10100 (1958) 51 (1964) 679 67 105 129 173 255 353 400 816 5240
2020-07-13 01:30 3.27 520 10100 (1958) 51 (1964) 679 67 105 129 173 255 353 400 816 5240
2020-07-13 00:30 3.28 524 10100 (1958) 51 (1964) 679 67 105 129 173 255 353 400 816 5240
2020-07-12 23:30 3.29 529 13600 (1958) 51 (1964) 520 71 112 133 163 219 361 381 581 1480
2020-07-12 22:30 3.30 533 13600 (1958) 51 (1964) 520 71 112 133 163 219 361 381 581 1480
2020-07-12 21:30 3.31 537 13600 (1958) 51 (1964) 520 71 112 133 163 219 361 381 581 1480
2020-07-12 20:30 3.32 542 13600 (1958) 51 (1964) 520 71 112 133 163 219 361 381 581 1480
2020-07-12 19:30 3.33 546 13600 (1958) 51 (1964) 520 71 112 133 163 219 361 381 581 1480
2020-07-12 18:30 3.34 550 13600 (1958) 51 (1964) 520 71 112 133 163 219 361 381 581 1480
2020-07-12 17:30 3.34 550 13600 (1958) 51 (1964) 520 71 112 133 163 219 361 381 581 1480
2020-07-12 16:30 3.34 550 13600 (1958) 51 (1964) 520 71 112 133 163 219 361 381 581 1480
2020-07-12 15:30 3.35 555 13600 (1958) 51 (1964) 520 71 112 133 163 219 361 381 581 1480
2020-07-12 14:30 3.35 555 13600 (1958) 51 (1964) 520 71 112 133 163 219 361 381 581 1480
2020-07-12 13:30 3.35 555 13600 (1958) 51 (1964) 520 71 112 133 163 219 361 381 581 1480
2020-07-12 12:30 3.35 555 13600 (1958) 51 (1964) 520 71 112 133 163 219 361 381 581 1480
2020-07-12 11:30 3.36 559 13600 (1958) 51 (1964) 520 71 112 133 163 219 361 381 581 1480
2020-07-12 10:30 3.36 559 13600 (1958) 51 (1964) 520 71 112 133 163 219 361 381 581 1480
2020-07-12 09:30 3.37 564 13600 (1958) 51 (1964) 520 71 112 133 163 219 361 381 581 1480
2020-07-12 08:30 3.38 568 13600 (1958) 51 (1964) 520 71 112 133 163 219 361 381 581 1480
2020-07-12 07:30 3.38 568 13600 (1958) 51 (1964) 520 71 112 133 163 219 361 381 581 1480
2020-07-12 06:30 3.39 573 13600 (1958) 51 (1964) 520 71 112 133 163 219 361 381 581 1480
2020-07-12 05:30 3.40 577 13600 (1958) 51 (1964) 520 71 112 133 163 219 361 381 581 1480
2020-07-12 04:30 3.41 582 13600 (1958) 51 (1964) 520 71 112 133 163 219 361 381 581 1480
2020-07-12 03:30 3.42 586 13600 (1958) 51 (1964) 520 71 112 133 163 219 361 381 581 1480
2020-07-12 02:30 3.43 591 13600 (1958) 51 (1964) 520 71 112 133 163 219 361 381 581 1480
2020-07-12 01:30 3.45 600 13600 (1958) 51 (1964) 520 71 112 133 163 219 361 381 581 1480
2020-07-12 00:30 3.46 605 13600 (1958) 51 (1964) 520 71 112 133 163 219 361 381 581 1480
2020-07-11 23:30 3.48 614 3500 (2015) 52 (1964) 380 78 113 138 157 220 375 405 682 1270
2020-07-11 22:30 3.51 629 3500 (2015) 52 (1964) 380 78 113 138 157 220 375 405 682 1270
2020-07-11 21:30 3.51 629 3500 (2015) 52 (1964) 380 78 113 138 157 220 375 405 682 1270
2020-07-11 20:30 3.36 559 3500 (2015) 52 (1964) 380 78 113 138 157 220 375 405 682 1270
2020-07-11 19:30 3.37 564 3500 (2015) 52 (1964) 380 78 113 138 157 220 375 405 682 1270
2020-07-11 18:30 3.38 568 3500 (2015) 52 (1964) 380 78 113 138 157 220 375 405 682 1270
2020-07-11 17:30 3.39 573 3500 (2015) 52 (1964) 380 78 113 138 157 220 375 405 682 1270
2020-07-11 16:30 3.40 577 3500 (2015) 52 (1964) 380 78 113 138 157 220 375 405 682 1270
2020-07-11 15:30 3.41 582 3500 (2015) 52 (1964) 380 78 113 138 157 220 375 405 682 1270
2020-07-11 14:30 3.43 591 3500 (2015) 52 (1964) 380 78 113 138 157 220 375 405 682 1270
2020-07-11 13:30 3.43 591 3500 (2015) 52 (1964) 380 78 113 138 157 220 375 405 682 1270
2020-07-11 12:30 3.44 596 3500 (2015) 52 (1964) 380 78 113 138 157 220 375 405 682 1270
2020-07-11 11:30 3.44 596 3500 (2015) 52 (1964) 380 78 113 138 157 220 375 405 682 1270
2020-07-11 10:30 3.45 600 3500 (2015) 52 (1964) 380 78 113 138 157 220 375 405 682 1270
2020-07-11 09:30 3.45 600 3500 (2015) 52 (1964) 380 78 113 138 157 220 375 405 682 1270
2020-07-11 08:30 3.46 605 3500 (2015) 52 (1964) 380 78 113 138 157 220 375 405 682 1270
2020-07-11 07:30 3.47 610 3500 (2015) 52 (1964) 380 78 113 138 157 220 375 405 682 1270
2020-07-11 06:30 3.48 614 3500 (2015) 52 (1964) 380 78 113 138 157 220 375 405 682 1270
2020-07-11 05:30 3.49 619 3500 (2015) 52 (1964) 380 78 113 138 157 220 375 405 682 1270
2020-07-11 04:30 3.50 624 3500 (2015) 52 (1964) 380 78 113 138 157 220 375 405 682 1270
2020-07-11 03:30 3.52 633 3500 (2015) 52 (1964) 380 78 113 138 157 220 375 405 682 1270
2020-07-11 02:30 3.53 638 3500 (2015) 52 (1964) 380 78 113 138 157 220 375 405 682 1270
2020-07-11 01:30 3.54 643 3500 (2015) 52 (1964) 380 78 113 138 157 220 375 405 682 1270
2020-07-11 00:30 3.56 653 3500 (2015) 52 (1964) 380 78 113 138 157 220 375 405 682 1270
2020-07-10 23:30 3.58 662 9740 (2015) 53 (1964) 491 77 117 145 160 223 369 418 731 1110
2020-07-10 22:30 3.59 667 9740 (2015) 53 (1964) 491 77 117 145 160 223 369 418 731 1110
2020-07-10 21:30 3.61 677 9740 (2015) 53 (1964) 491 77 117 145 160 223 369 418 731 1110
2020-07-10 20:30 3.64 692 9740 (2015) 53 (1964) 491 77 117 145 160 223 369 418 731 1110
2020-07-10 19:30 3.66 702 9740 (2015) 53 (1964) 491 77 117 145 160 223 369 418 731 1110
2020-07-10 18:30 3.68 712 9740 (2015) 53 (1964) 491 77 117 145 160 223 369 418 731 1110
2020-07-10 17:30 3.70 723 9740 (2015) 53 (1964) 491 77 117 145 160 223 369 418 731 1110
2020-07-10 16:30 3.73 738 9740 (2015) 53 (1964) 491 77 117 145 160 223 369 418 731 1110
2020-07-10 15:30 3.75 749 9740 (2015) 53 (1964) 491 77 117 145 160 223 369 418 731 1110
2020-07-10 14:30 3.78 764 9740 (2015) 53 (1964) 491 77 117 145 160 223 369 418 731 1110
2020-07-10 13:30 3.81 780 9740 (2015) 53 (1964) 491 77 117 145 160 223 369 418 731 1110
2020-07-10 12:30 3.83 791 9740 (2015) 53 (1964) 491 77 117 145 160 223 369 418 731 1110
2020-07-10 11:30 3.86 807 9740 (2015) 53 (1964) 491 77 117 145 160 223 369 418 731 1110
2020-07-10 10:30 3.87 813 9740 (2015) 53 (1964) 491 77 117 145 160 223 369 418 731 1110
2020-07-10 09:30 3.88 818 9740 (2015) 53 (1964) 491 77 117 145 160 223 369 418 731 1110
2020-07-10 08:30 3.87 813 9740 (2015) 53 (1964) 491 77 117 145 160 223 369 418 731 1110
2020-07-10 07:30 3.84 797 9740 (2015) 53 (1964) 491 77 117 145 160 223 369 418 731 1110
2020-07-10 06:30 3.78 764 9740 (2015) 53 (1964) 491 77 117 145 160 223 369 418 731 1110
2020-07-10 05:30 3.72 733 9740 (2015) 53 (1964) 491 77 117 145 160 223 369 418 731 1110
2020-07-10 04:30 3.68 712 9740 (2015) 53 (1964) 491 77 117 145 160 223 369 418 731 1110
2020-07-10 03:30 3.68 712 9740 (2015) 53 (1964) 491 77 117 145 160 223 369 418 731 1110
2020-07-10 02:30 3.70 723 9740 (2015) 53 (1964) 491 77 117 145 160 223 369 418 731 1110
2020-07-10 01:30 3.73 738 9740 (2015) 53 (1964) 491 77 117 145 160 223 369 418 731 1110
2020-07-10 00:30 3.75 749 9740 (2015) 53 (1964) 491 77 117 145 160 223 369 418 731 1110
2020-07-09 23:30 3.76 754 5820 (2015) 51 (1964) 427 82 114 147 162 233 379 411 830 1270
2020-07-09 22:30 3.75 749 5820 (2015) 51 (1964) 427 82 114 147 162 233 379 411 830 1270
2020-07-09 21:30 3.72 733 5820 (2015) 51 (1964) 427 82 114 147 162 233 379 411 830 1270
2020-07-09 20:30 3.65 697 5820 (2015) 51 (1964) 427 82 114 147 162 233 379 411 830 1270
2020-07-09 19:30 3.55 648 5820 (2015) 51 (1964) 427 82 114 147 162 233 379 411 830 1270
2020-07-09 18:30 3.52 633 5820 (2015) 51 (1964) 427 82 114 147 162 233 379 411 830 1270
2020-07-09 17:30 3.49 619 5820 (2015) 51 (1964) 427 82 114 147 162 233 379 411 830 1270
2020-07-09 16:30 3.47 610 5820 (2015) 51 (1964) 427 82 114 147 162 233 379 411 830 1270
2020-07-09 15:30 3.45 600 5820 (2015) 51 (1964) 427 82 114 147 162 233 379 411 830 1270
2020-07-09 14:30 3.44 596 5820 (2015) 51 (1964) 427 82 114 147 162 233 379 411 830 1270
2020-07-09 13:30 3.42 586 5820 (2015) 51 (1964) 427 82 114 147 162 233 379 411 830 1270
2020-07-09 12:30 3.40 577 5820 (2015) 51 (1964) 427 82 114 147 162 233 379 411 830 1270
2020-07-09 11:30 3.40 577 5820 (2015) 51 (1964) 427 82 114 147 162 233 379 411 830 1270
2020-07-09 10:30 3.39 573 5820 (2015) 51 (1964) 427 82 114 147 162 233 379 411 830 1270
2020-07-09 09:30 3.15 470 5820 (2015) 51 (1964) 427 82 114 147 162 233 379 411 830 1270
2020-07-09 08:30 3.15 470 5820 (2015) 51 (1964) 427 82 114 147 162 233 379 411 830 1270
2020-07-09 07:30 3.15 470 5820 (2015) 51 (1964) 427 82 114 147 162 233 379 411 830 1270
2020-07-09 06:30 3.16 474 5820 (2015) 51 (1964) 427 82 114 147 162 233 379 411 830 1270
2020-07-09 05:30 3.16 474 5820 (2015) 51 (1964) 427 82 114 147 162 233 379 411 830 1270
2020-07-09 04:30 3.17 478 5820 (2015) 51 (1964) 427 82 114 147 162 233 379 411 830 1270
2020-07-09 03:30 3.17 478 5820 (2015) 51 (1964) 427 82 114 147 162 233 379 411 830 1270
2020-07-09 02:30 3.17 478 5820 (2015) 51 (1964) 427 82 114 147 162 233 379 411 830 1270
2020-07-09 01:30 3.17 478 5820 (2015) 51 (1964) 427 82 114 147 162 233 379 411 830 1270
2020-07-09 00:30 3.18 482 5820 (2015) 51 (1964) 427 82 114 147 162 233 379 411 830 1270
2020-07-08 23:30 3.18 482 6810 (2015) 55 (1964) 418 87 99 145 164 244 401 435 741 1100
2020-07-08 22:30 3.18 482 6810 (2015) 55 (1964) 418 87 99 145 164 244 401 435 741 1100
2020-07-08 21:30 3.18 482 6810 (2015) 55 (1964) 418 87 99 145 164 244 401 435 741 1100
2020-07-08 20:30 3.19 486 6810 (2015) 55 (1964) 418 87 99 145 164 244 401 435 741 1100
2020-07-08 19:30 3.19 486 6810 (2015) 55 (1964) 418 87 99 145 164 244 401 435 741 1100
2020-07-08 18:30 3.19 486 6810 (2015) 55 (1964) 418 87 99 145 164 244 401 435 741 1100
2020-07-08 17:30 3.19 486 6810 (2015) 55 (1964) 418 87 99 145 164 244 401 435 741 1100
2020-07-08 16:30 3.19 486 6810 (2015) 55 (1964) 418 87 99 145 164 244 401 435 741 1100
2020-07-08 15:30 3.19 486 6810 (2015) 55 (1964) 418 87 99 145 164 244 401 435 741 1100
2020-07-08 14:30 3.20 490 6810 (2015) 55 (1964) 418 87 99 145 164 244 401 435 741 1100
2020-07-08 13:30 3.20 490 6810 (2015) 55 (1964) 418 87 99 145 164 244 401 435 741 1100
2020-07-08 12:30 3.21 495 6810 (2015) 55 (1964) 418 87 99 145 164 244 401 435 741 1100
2020-07-08 11:30 3.21 495 6810 (2015) 55 (1964) 418 87 99 145 164 244 401 435 741 1100
2020-07-08 10:30 3.22 499 6810 (2015) 55 (1964) 418 87 99 145 164 244 401 435 741 1100
2020-07-08 09:30 3.22 499 6810 (2015) 55 (1964) 418 87 99 145 164 244 401 435 741 1100
2020-07-08 08:30 3.22 499 6810 (2015) 55 (1964) 418 87 99 145 164 244 401 435 741 1100
2020-07-08 07:30 3.22 499 6810 (2015) 55 (1964) 418 87 99 145 164 244 401 435 741 1100
2020-07-08 06:30 3.23 503 6810 (2015) 55 (1964) 418 87 99 145 164 244 401 435 741 1100
2020-07-08 05:30 3.23 503 6810 (2015) 55 (1964) 418 87 99 145 164 244 401 435 741 1100
2020-07-08 04:30 3.24 507 6810 (2015) 55 (1964) 418 87 99 145 164 244 401 435 741 1100
2020-07-08 03:30 3.24 507 6810 (2015) 55 (1964) 418 87 99 145 164 244 401 435 741 1100
2020-07-08 02:30 3.26 516 6810 (2015) 55 (1964) 418 87 99 145 164 244 401 435 741 1100
2020-07-08 01:30 3.27 520 6810 (2015) 55 (1964) 418 87 99 145 164 244 401 435 741 1100
2020-07-08 00:30 3.28 524 6810 (2015) 55 (1964) 418 87 99 145 164 244 401 435 741 1100
2020-07-07 23:30 3.29 529 1860 (2019) 56 (1964) 366 90 106 148 170 259 422 472 948 1070
2020-07-07 22:30 3.29 529 1860 (2019) 56 (1964) 366 90 106 148 170 259 422 472 948 1070
2020-07-07 21:30 3.27 520 1860 (2019) 56 (1964) 366 90 106 148 170 259 422 472 948 1070
2020-07-07 20:30 3.27 520 1860 (2019) 56 (1964) 366 90 106 148 170 259 422 472 948 1070
2020-07-07 19:30 3.27 520 1860 (2019) 56 (1964) 366 90 106 148 170 259 422 472 948 1070
2020-07-07 18:30 3.27 520 1860 (2019) 56 (1964) 366 90 106 148 170 259 422 472 948 1070
2020-07-07 17:30 3.27 520 1860 (2019) 56 (1964) 366 90 106 148 170 259 422 472 948 1070
2020-07-07 16:30 3.28 524 1860 (2019) 56 (1964) 366 90 106 148 170 259 422 472 948 1070
2020-07-07 15:30 3.28 524 1860 (2019) 56 (1964) 366 90 106 148 170 259 422 472 948 1070
2020-07-07 14:30 3.28 524 1860 (2019) 56 (1964) 366 90 106 148 170 259 422 472 948 1070
2020-07-07 13:30 3.29 529 1860 (2019) 56 (1964) 366 90 106 148 170 259 422 472 948 1070
2020-07-07 12:30 3.30 533 1860 (2019) 56 (1964) 366 90 106 148 170 259 422 472 948 1070
2020-07-07 11:30 3.30 533 1860 (2019) 56 (1964) 366 90 106 148 170 259 422 472 948 1070
2020-07-07 10:30 3.30 533 1860 (2019) 56 (1964) 366 90 106 148 170 259 422 472 948 1070
2020-07-07 09:30 3.31 537 1860 (2019) 56 (1964) 366 90 106 148 170 259 422 472 948 1070
2020-07-07 08:30 3.32 542 1860 (2019) 56 (1964) 366 90 106 148 170 259 422 472 948 1070
2020-07-07 07:30 3.33 546 1860 (2019) 56 (1964) 366 90 106 148 170 259 422 472 948 1070
2020-07-07 06:30 3.33 546 1860 (2019) 56 (1964) 366 90 106 148 170 259 422 472 948 1070
2020-07-07 05:30 3.34 550 1860 (2019) 56 (1964) 366 90 106 148 170 259 422 472 948 1070
2020-07-07 04:30 3.34 550 1860 (2019) 56 (1964) 366 90 106 148 170 259 422 472 948 1070
2020-07-07 03:30 3.35 555 1860 (2019) 56 (1964) 366 90 106 148 170 259 422 472 948 1070
2020-07-07 02:30 3.36 559 1860 (2019) 56 (1964) 366 90 106 148 170 259 422 472 948 1070
2020-07-07 01:30 3.37 564 1860 (2019) 56 (1964) 366 90 106 148 170 259 422 472 948 1070
2020-07-07 00:30 3.39 573 1860 (2019) 56 (1964) 366 90 106 148 170 259 422 472 948 1070
2020-07-06 23:30 3.40 577 1340 (2004) 63 (1964) 369 90 111 153 168 245 438 491 887 1170
2020-07-06 22:30 3.42 586 1340 (2004) 63 (1964) 369 90 111 153 168 245 438 491 887 1170
2020-07-06 21:30 3.43 591 1340 (2004) 63 (1964) 369 90 111 153 168 245 438 491 887 1170
2020-07-06 20:30 3.45 600 1340 (2004) 63 (1964) 369 90 111 153 168 245 438 491 887 1170
2020-07-06 19:30 3.46 605 1340 (2004) 63 (1964) 369 90 111 153 168 245 438 491 887 1170
2020-07-06 18:30 3.47 610 1340 (2004) 63 (1964) 369 90 111 153 168 245 438 491 887 1170
2020-07-06 17:30 3.48 614 1340 (2004) 63 (1964) 369 90 111 153 168 245 438 491 887 1170
2020-07-06 16:30 3.48 614 1340 (2004) 63 (1964) 369 90 111 153 168 245 438 491 887 1170
2020-07-06 15:30 3.49 619 1340 (2004) 63 (1964) 369 90 111 153 168 245 438 491 887 1170
2020-07-06 14:30 3.48 614 1340 (2004) 63 (1964) 369 90 111 153 168 245 438 491 887 1170
2020-07-06 13:30 3.48 614 1340 (2004) 63 (1964) 369 90 111 153 168 245 438 491 887 1170
2020-07-06 12:30 3.48 614 1340 (2004) 63 (1964) 369 90 111 153 168 245 438 491 887 1170
2020-07-06 11:30 3.48 614 1340 (2004) 63 (1964) 369 90 111 153 168 245 438 491 887 1170
2020-07-06 10:30 3.46 605 1340 (2004) 63 (1964) 369 90 111 153 168 245 438 491 887 1170
2020-07-06 09:30 3.45 600 1340 (2004) 63 (1964) 369 90 111 153 168 245 438 491 887 1170
2020-07-06 08:30 3.43 591 1340 (2004) 63 (1964) 369 90 111 153 168 245 438 491 887 1170
2020-07-06 07:30 3.42 586 1340 (2004) 63 (1964) 369 90 111 153 168 245 438 491 887 1170
2020-07-06 06:30 3.42 586 1340 (2004) 63 (1964) 369 90 111 153 168 245 438 491 887 1170
2020-07-06 05:30 3.43 591 1340 (2004) 63 (1964) 369 90 111 153 168 245 438 491 887 1170
2020-07-06 04:30 3.44 596 1340 (2004) 63 (1964) 369 90 111 153 168 245 438 491 887 1170
2020-07-06 03:30 3.45 600 1340 (2004) 63 (1964) 369 90 111 153 168 245 438 491 887 1170
2020-07-06 02:30 3.46 605 1340 (2004) 63 (1964) 369 90 111 153 168 245 438 491 887 1170
2020-07-06 01:30 3.48 614 1340 (2004) 63 (1964) 369 90 111 153 168 245 438 491 887 1170
2020-07-06 00:30 3.50 624 1340 (2004) 63 (1964) 369 90 111 153 168 245 438 491 887 1170

A total of 188 rows are displayed for years 1956 through 2019.